Time;durP1;ratioP1;P1;durP2;ratioP2;P2;SDS_P1;SDS_P2;PMS_P1;PMS_P2;Temp;Humidity;BMP_temperature;BMP_pressure;BME280_temperature;BME280_humidity;BME280_pressure;Samples;Min_cycle;Max_cycle;Signal;HPM_P1;HPM_P2
2023/01/17 00:01:55;;;;;;;4.45;0.40;;;3.20;99.90;;;;;;5004667;28;20440;-73
2023/01/17 00:09:52;;;;;;;5.55;0.90;;;3.40;99.90;;;;;;5015805;28;20498;-74
2023/01/17 00:12:19;;;;;;;5.85;0.93;;;3.50;99.90;;;;;;5025310;28;20462;-73
2023/01/17 00:14:45;;;;;;;5.40;0.65;;;2.90;99.90;;;;;;5029141;28;20432;-73
2023/01/17 00:17:11;;;;;;;5.97;0.70;;;2.80;99.90;;;;;;5020525;28;20428;-73
2023/01/17 01:34:58;;;;;;;7.15;1.15;;;2.90;99.90;;;;;;5019985;28;20524;-74
2023/01/17 01:37:23;;;;;;;4.47;0.60;;;2.90;99.90;;;;;;5015191;28;20584;-74
2023/01/17 01:39:49;;;;;;;5.40;0.70;;;3.80;99.90;;;;;;5027147;28;20506;-74
2023/01/17 01:42:15;;;;;;;5.20;0.90;;;4.00;99.90;;;;;;5012679;28;20459;-74
2023/01/17 01:44:44;;;;;;;2.72;0.43;;;3.10;99.90;;;;;;5009875;28;20439;-74
2023/01/17 01:47:21;;;;;;;4.63;0.70;;;3.00;99.90;;;;;;5027531;28;20966;-74
2023/01/17 01:49:47;;;;;;;3.97;0.75;;;3.00;99.90;;;;;;5026932;28;20426;-74
2023/01/17 01:52:14;;;;;;;3.78;0.70;;;3.10;99.90;;;;;;5026883;28;20426;-74
2023/01/17 01:54:46;;;;;;;6.75;0.90;;;3.10;99.90;;;;;;5028002;28;20928;-74
2023/01/17 01:57:15;;;;;;;7.90;1.43;;;2.90;99.90;;;;;;5009354;28;20435;-74
2023/01/17 01:59:50;;;;;;;6.53;1.00;;;3.20;99.90;;;;;;5026678;28;20521;-74
2023/01/17 02:02:16;;;;;;;7.15;1.77;;;3.20;99.90;;;;;;5031445;28;20557;-73
2023/01/17 02:04:43;;;;;;;3.30;0.80;;;3.00;99.90;;;;;;5035460;28;20530;-74
2023/01/17 02:07:18;;;;;;;8.30;1.85;;;4.30;99.90;;;;;;5025863;28;20890;-74
2023/01/17 02:09:44;;;;;;;3.42;0.40;;;3.20;99.90;;;;;;5009052;28;20435;-74
2023/01/17 02:12:10;;;;;;;3.00;0.47;;;3.20;99.90;;;;;;5026086;28;20435;-74
2023/01/17 02:14:36;;;;;;;4.22;0.70;;;3.30;99.90;;;;;;5024154;28;20541;-74
2023/01/17 02:17:04;;;;;;;6.53;1.50;;;3.40;99.90;;;;;;5020402;28;20457;-75
2023/01/17 02:20:05;;;;;;;4.40;0.45;;;3.20;99.90;;;;;;5033240;28;20454;-76
2023/01/17 02:22:39;;;;;;;8.90;1.45;;;3.30;99.90;;;;;;5024530;28;20507;-75
2023/01/17 02:25:11;;;;;;;10.60;1.58;;;3.30;99.90;;;;;;5017050;28;20951;-76
2023/01/17 02:28:12;;;;;;;7.35;1.40;;;3.30;99.90;;;;;;5023929;28;20487;-74
2023/01/17 02:30:50;;;;;;;6.32;0.98;;;2.90;99.90;;;;;;4991675;28;20430;-75
2023/01/17 02:33:31;;;;;;;6.35;1.10;;;3.10;99.90;;;;;;5015308;28;20836;-75
2023/01/17 02:36:18;;;;;;;7.07;1.42;;;3.20;99.90;;;;;;5024890;28;20458;-75
2023/01/17 02:38:51;;;;;;;7.32;1.65;;;3.10;99.90;;;;;;5024600;28;20486;-74
2023/01/17 02:41:37;;;;;;;6.25;0.95;;;1.90;99.90;;;;;;5017154;28;20491;-74
2023/01/17 02:44:06;;;;;;;6.50;1.40;;;2.20;99.90;;;;;;5023624;28;20513;-75
2023/01/17 02:46:32;;;;;;;8.18;0.80;;;2.50;99.90;;;;;;5023251;28;21227;-75
2023/01/17 02:48:59;;;;;;;7.10;0.80;;;2.30;99.90;;;;;;5010440;28;20407;-75
2023/01/17 02:52:04;;;;;;;8.43;1.50;;;2.20;99.90;;;;;;5025719;28;20816;-76
2023/01/17 02:55:00;;;;;;;8.75;1.70;;;2.50;99.90;;;;;;5020630;28;20437;-75
2023/01/17 02:57:53;;;;;;;7.57;0.93;;;2.30;99.90;;;;;;5025460;28;20426;-76
2023/01/17 03:00:37;;;;;;;5.80;1.00;;;2.40;99.90;;;;;;5023989;28;20430;-75
2023/01/17 03:03:17;;;;;;;10.73;1.67;;;2.80;99.90;;;;;;5020081;28;20505;-75
2023/01/17 03:05:48;;;;;;;3.97;1.13;;;2.90;99.90;;;;;;5026051;28;20492;-75
2023/01/17 03:08:14;;;;;;;8.10;0.95;;;2.80;99.90;;;;;;5026235;28;20671;-75
2023/01/17 03:10:41;;;;;;;5.68;0.52;;;2.90;99.90;;;;;;5026224;28;20434;-76
2023/01/17 03:13:07;;;;;;;7.78;1.90;;;2.90;99.90;;;;;;5026508;28;20473;-76
2023/01/17 03:15:32;;;;;;;5.03;0.70;;;3.00;99.90;;;;;;5007028;28;20901;-76
2023/01/17 03:18:03;;;;;;;6.50;1.30;;;3.10;99.90;;;;;;5024620;28;20960;-75
2023/01/17 03:20:29;;;;;;;9.45;1.45;;;3.00;99.90;;;;;;5025914;28;20566;-75
2023/01/17 03:22:55;;;;;;;7.07;0.93;;;3.10;99.90;;;;;;5025351;28;20963;-75
2023/01/17 03:25:21;;;;;;;8.23;1.15;;;3.80;99.90;;;;;;5009248;28;20430;-75
2023/01/17 03:27:47;;;;;;;4.20;0.57;;;2.90;99.90;;;;;;5008385;28;20442;-74
2023/01/17 03:30:12;;;;;;;7.85;0.82;;;2.80;99.90;;;;;;5024596;28;20509;-73
2023/01/17 03:32:38;;;;;;;7.20;0.98;;;2.80;99.90;;;;;;5022921;28;20516;-74
2023/01/17 03:35:04;;;;;;;7.37;2.40;;;2.90;99.90;;;;;;5025464;28;20438;-74
2023/01/17 03:37:30;;;;;;;3.17;0.90;;;2.90;99.90;;;;;;5025689;28;20429;-75
2023/01/17 03:39:56;;;;;;;8.38;1.15;;;2.90;99.90;;;;;;5008512;28;20521;-75
2023/01/17 03:42:21;;;;;;;5.30;0.93;;;2.90;99.90;;;;;;5023847;28;20585;-75
2023/01/17 03:44:47;;;;;;;5.80;1.03;;;2.80;99.90;;;;;;5008639;28;21113;-74
2023/01/17 03:47:13;;;;;;;7.87;1.63;;;2.80;99.90;;;;;;5024615;28;20509;-75
2023/01/17 03:49:39;;;;;;;9.87;1.60;;;2.90;99.90;;;;;;5025946;28;20431;-75
2023/01/17 03:52:05;;;;;;;7.38;1.38;;;2.90;99.90;;;;;;5025692;28;20466;-75
2023/01/17 03:54:31;;;;;;;7.57;1.20;;;2.80;99.90;;;;;;5026039;28;20473;-74
2023/01/17 03:56:56;;;;;;;7.70;1.70;;;2.90;99.90;;;;;;5006364;28;20434;-74
2023/01/17 03:59:22;;;;;;;6.87;1.63;;;3.00;99.90;;;;;;5006552;28;20763;-75
2023/01/17 04:01:48;;;;;;;9.10;1.53;;;3.00;99.90;;;;;;5022409;28;20442;-75
2023/01/17 04:04:13;;;;;;;6.30;1.30;;;2.90;99.90;;;;;;5022726;28;20462;-75
2023/01/17 04:06:40;;;;;;;8.45;1.00;;;2.80;99.90;;;;;;5024883;28;20446;-75
2023/01/17 04:09:05;;;;;;;8.27;1.05;;;2.80;99.90;;;;;;5014947;28;20433;-76
2023/01/17 04:11:31;;;;;;;8.55;1.50;;;2.80;99.90;;;;;;5025397;28;20435;-74
2023/01/17 04:13:57;;;;;;;5.65;1.30;;;2.70;99.90;;;;;;5022551;28;20459;-75
2023/01/17 04:16:28;;;;;;;5.35;0.63;;;2.90;99.90;;;;;;5021868;28;20437;-74
2023/01/17 04:18:54;;;;;;;5.10;0.80;;;2.60;99.90;;;;;;5023223;28;20419;-75
2023/01/17 04:21:20;;;;;;;8.35;0.88;;;2.60;99.90;;;;;;5025340;28;20525;-76
2023/01/17 04:23:46;;;;;;;3.47;0.70;;;2.60;99.90;;;;;;5006264;28;20514;-75
2023/01/17 04:26:12;;;;;;;8.38;1.58;;;4.10;99.90;;;;;;5024486;28;20438;-75
2023/01/17 04:28:38;;;;;;;7.18;0.60;;;2.40;99.90;;;;;;5005960;28;20442;-76
2023/01/17 04:31:03;;;;;;;6.03;1.37;;;2.40;99.90;;;;;;5020646;28;20470;-75
2023/01/17 04:33:29;;;;;;;2.28;0.63;;;2.30;99.90;;;;;;5022931;28;20446;-73
2023/01/17 04:35:55;;;;;;;2.58;0.60;;;2.30;99.90;;;;;;5029571;28;20434;-75
2023/01/17 04:38:22;;;;;;;5.95;1.00;;;2.10;99.90;;;;;;5025295;28;20414;-75
2023/01/17 04:40:48;;;;;;;3.22;1.20;;;2.10;99.90;;;;;;5028241;28;20437;-74
2023/01/17 04:43:15;;;;;;;4.32;0.57;;;2.10;99.90;;;;;;5006430;28;20462;-75
2023/01/17 04:45:41;;;;;;;2.55;0.38;;;2.60;99.90;;;;;;5022336;28;20434;-75
2023/01/17 04:48:07;;;;;;;5.93;1.10;;;2.20;99.90;;;;;;5023944;28;20414;-75
2023/01/17 04:50:33;;;;;;;3.03;0.45;;;2.10;99.90;;;;;;5026073;28;20525;-74
2023/01/17 04:52:59;;;;;;;4.93;0.60;;;2.20;99.90;;;;;;5024981;28;20501;-74
2023/01/17 04:55:24;;;;;;;4.00;0.65;;;2.30;99.90;;;;;;5009842;28;20455;-74
2023/01/17 04:57:50;;;;;;;5.40;0.80;;;2.10;99.90;;;;;;5026750;28;20422;-76
2023/01/17 05:00:17;;;;;;;4.47;0.60;;;2.80;99.90;;;;;;5022464;28;20435;-75
2023/01/17 05:02:42;;;;;;;3.22;0.60;;;2.20;99.90;;;;;;4990640;28;20426;-75
2023/01/17 05:05:09;;;;;;;6.40;1.08;;;2.10;99.90;;;;;;5023948;28;20851;-76
2023/01/17 05:07:34;;;;;;;4.88;0.93;;;2.20;99.90;;;;;;5023356;28;20419;-74
2023/01/17 05:10:00;;;;;;;6.95;1.42;;;2.20;99.90;;;;;;5021856;28;20811;-75
2023/01/17 05:12:27;;;;;;;7.72;1.52;;;2.20;99.90;;;;;;5021093;28;20434;-77
2023/01/17 05:14:52;;;;;;;7.40;1.67;;;2.10;99.90;;;;;;5022596;28;20431;-75
2023/01/17 05:17:18;;;;;;;7.17;1.63;;;1.90;99.90;;;;;;5021774;28;20476;-77
2023/01/17 05:19:44;;;;;;;11.83;2.17;;;2.10;99.90;;;;;;4990391;28;20451;-76
2023/01/17 05:22:14;;;;;;;8.05;2.00;;;2.90;99.90;;;;;;5006281;28;20466;-76
2023/01/17 05:24:44;;;;;;;8.20;1.48;;;1.80;99.90;;;;;;5005444;28;20443;-75
2023/01/17 05:27:11;;;;;;;6.10;0.73;;;1.90;99.90;;;;;;5014151;28;20488;-75
2023/01/17 05:29:38;;;;;;;7.82;1.30;;;1.90;99.90;;;;;;5023632;28;20465;-74
2023/01/17 05:32:04;;;;;;;6.20;1.00;;;2.30;99.90;;;;;;5024225;28;20438;-76
2023/01/17 05:34:30;;;;;;;9.30;1.93;;;1.70;99.90;;;;;;5013133;28;20503;-76
2023/01/17 05:36:56;;;;;;;8.43;1.40;;;1.80;99.90;;;;;;5008596;28;21112;-75
2023/01/17 05:39:21;;;;;;;8.60;0.95;;;1.70;99.90;;;;;;5010264;28;20450;-75
2023/01/17 05:41:47;;;;;;;7.00;1.00;;;1.60;99.90;;;;;;5023866;28;20431;-74
2023/01/17 05:44:14;;;;;;;3.40;0.90;;;1.60;99.90;;;;;;5022118;28;20430;-74
2023/01/17 05:46:40;;;;;;;6.15;1.05;;;1.80;99.90;;;;;;5018795;28;20443;-74
2023/01/17 05:49:06;;;;;;;6.35;0.88;;;2.60;99.90;;;;;;5024831;28;20490;-74
2023/01/17 05:51:32;;;;;;;4.78;0.47;;;1.20;99.90;;;;;;5023194;28;20790;-74
2023/01/17 05:53:58;;;;;;;3.20;0.70;;;1.40;99.90;;;;;;5025916;28;20419;-74
2023/01/17 05:56:23;;;;;;;9.10;1.27;;;1.20;99.90;;;;;;5007247;28;20483;-73
2023/01/17 05:58:49;;;;;;;5.97;1.13;;;2.20;99.90;;;;;;5022133;28;20457;-73
2023/01/17 06:01:14;;;;;;;3.23;0.60;;;1.30;99.90;;;;;;5022749;28;20431;-74
2023/01/17 06:03:40;;;;;;;5.80;0.73;;;1.20;99.90;;;;;;5021616;28;20430;-73
2023/01/17 06:06:06;;;;;;;7.80;1.87;;;2.40;99.90;;;;;;5023610;28;20437;-74
2023/01/17 06:08:32;;;;;;;5.93;0.63;;;0.90;99.90;;;;;;4989318;28;20790;-74
2023/01/17 06:10:58;;;;;;;6.40;0.90;;;1.20;99.90;;;;;;5028810;28;20433;-75
2023/01/17 06:13:24;;;;;;;5.68;0.77;;;1.20;99.90;;;;;;4994474;28;20502;-74
2023/01/17 06:15:49;;;;;;;4.53;0.50;;;1.80;99.90;;;;;;5022292;28;20518;-74
2023/01/17 06:18:16;;;;;;;3.42;0.55;;;2.10;99.90;;;;;;5003553;28;20427;-74
2023/01/17 06:20:42;;;;;;;3.80;0.90;;;1.30;99.90;;;;;;5028920;28;20971;-75
2023/01/17 06:23:13;;;;;;;2.13;0.60;;;1.40;99.90;;;;;;5008500;28;20423;-74
2023/01/17 06:25:43;;;;;;;5.43;0.95;;;1.40;99.90;;;;;;5016112;28;20438;-74
2023/01/17 06:28:11;;;;;;;8.18;0.98;;;1.40;99.90;;;;;;5025193;28;20553;-74
2023/01/17 06:30:37;;;;;;;2.63;0.70;;;1.40;99.90;;;;;;5008424;28;20478;-75
2023/01/17 06:33:03;;;;;;;6.55;1.50;;;1.40;99.90;;;;;;5008445;28;20463;-75
2023/01/17 06:35:28;;;;;;;3.38;0.50;;;1.30;99.90;;;;;;5025136;28;20419;-75
2023/01/17 06:37:56;;;;;;;13.10;2.23;;;1.40;99.90;;;;;;5029977;28;20433;-74
2023/01/17 06:40:23;;;;;;;3.50;0.63;;;1.30;99.90;;;;;;5030768;28;20431;-74
2023/01/17 06:42:49;;;;;;;5.80;0.88;;;1.50;99.90;;;;;;5009815;28;20430;-73
2023/01/17 06:45:15;;;;;;;4.07;0.70;;;1.40;99.90;;;;;;5023999;28;20924;-74
2023/01/17 06:47:42;;;;;;;4.10;0.50;;;1.50;99.90;;;;;;5028829;28;20450;-73
2023/01/17 06:50:13;;;;;;;3.95;1.08;;;1.50;99.90;;;;;;5009328;28;20441;-73
2023/01/17 06:52:40;;;;;;;6.70;1.70;;;1.40;99.90;;;;;;5025466;28;20870;-73
2023/01/17 06:55:06;;;;;;;3.33;1.15;;;1.80;99.90;;;;;;5025266;28;20909;-74
2023/01/17 06:57:32;;;;;;;9.55;2.10;;;1.10;99.90;;;;;;5025034;28;20433;-74
2023/01/17 06:59:58;;;;;;;5.63;0.77;;;1.20;99.90;;;;;;5027665;28;20419;-73
2023/01/17 07:02:24;;;;;;;10.53;1.53;;;1.30;99.90;;;;;;5024709;28;20470;-74
2023/01/17 07:04:49;;;;;;;5.13;1.30;;;1.10;99.90;;;;;;5023135;28;20905;-74
2023/01/17 07:07:15;;;;;;;4.93;1.15;;;1.30;99.90;;;;;;5025325;28;20433;-74
2023/01/17 07:09:41;;;;;;;5.75;1.15;;;2.20;99.90;;;;;;5016797;28;20553;-74
2023/01/17 07:12:07;;;;;;;5.53;1.23;;;1.20;99.90;;;;;;5035672;28;20414;-74
2023/01/17 07:14:32;;;;;;;5.20;1.08;;;1.50;99.90;;;;;;5006185;28;20885;-74
2023/01/17 07:16:58;;;;;;;5.00;0.67;;;1.30;99.90;;;;;;5021919;28;20441;-74
2023/01/17 07:19:24;;;;;;;4.57;0.60;;;1.40;99.90;;;;;;4993797;28;20438;-74
2023/01/17 07:21:51;;;;;;;3.75;0.52;;;1.40;99.90;;;;;;5029612;28;20436;-74
2023/01/17 07:24:18;;;;;;;3.60;0.77;;;1.40;99.90;;;;;;5024564;28;20435;-75
2023/01/17 07:26:46;;;;;;;3.80;0.67;;;1.50;99.90;;;;;;5024933;28;20622;-75
2023/01/17 07:29:12;;;;;;;5.28;1.38;;;1.40;99.90;;;;;;5025379;28;20423;-75
2023/01/17 07:31:39;;;;;;;4.23;0.87;;;1.60;99.90;;;;;;5023653;28;20914;-75
2023/01/17 07:34:05;;;;;;;16.92;1.90;;;1.50;99.90;;;;;;5026200;28;20454;-75
2023/01/17 07:36:30;;;;;;;5.45;1.58;;;1.70;99.90;;;;;;5004512;28;20451;-74
2023/01/17 07:38:56;;;;;;;4.10;0.63;;;1.60;99.90;;;;;;5026849;28;20419;-74
2023/01/17 07:41:22;;;;;;;4.30;1.07;;;1.80;99.90;;;;;;5023177;28;20438;-74
2023/01/17 07:43:48;;;;;;;6.40;0.93;;;1.80;99.90;;;;;;5022487;28;20425;-75
2023/01/17 07:46:14;;;;;;;4.97;1.08;;;1.70;99.90;;;;;;5015307;28;20562;-74
2023/01/17 07:48:40;;;;;;;4.90;1.02;;;1.60;99.90;;;;;;5020057;28;20502;-74
2023/01/17 07:51:07;;;;;;;7.32;0.88;;;2.30;99.90;;;;;;5008092;28;20446;-75
2023/01/17 07:53:33;;;;;;;3.00;0.45;;;1.60;99.90;;;;;;5024412;28;20528;-73
2023/01/17 07:56:01;;;;;;;4.00;0.60;;;1.70;99.90;;;;;;5022203;28;20790;-74
2023/01/17 07:58:27;;;;;;;2.85;0.70;;;1.60;99.90;;;;;;5005913;28;20498;-75
2023/01/17 08:00:53;;;;;;;4.47;0.50;;;1.50;99.90;;;;;;5027387;28;20563;-74
2023/01/17 08:03:18;;;;;;;3.53;1.00;;;1.90;99.90;;;;;;5022253;28;20468;-74
2023/01/17 08:05:54;;;;;;;6.53;1.07;;;1.40;99.90;;;;;;5025416;28;20562;-74
2023/01/17 08:08:20;;;;;;;3.90;0.95;;;1.20;99.90;;;;;;5012841;28;20532;-75
2023/01/17 08:10:46;;;;;;;4.50;1.20;;;1.40;99.90;;;;;;5025899;28;20470;-74
2023/01/17 08:13:11;;;;;;;5.88;1.27;;;1.20;99.90;;;;;;5025225;28;20891;-75
2023/01/17 08:15:37;;;;;;;4.65;1.05;;;1.20;99.90;;;;;;5024175;28;20426;-74
2023/01/17 08:18:02;;;;;;;2.78;0.80;;;1.30;99.90;;;;;;5026324;28;20426;-73
2023/01/17 08:20:28;;;;;;;5.40;1.70;;;1.30;99.90;;;;;;5019512;28;20457;-74
2023/01/17 08:22:55;;;;;;;8.23;1.00;;;1.00;99.90;;;;;;5023685;28;20431;-74
2023/01/17 08:25:23;;;;;;;5.82;1.35;;;1.30;99.90;;;;;;5024755;28;20505;-74
2023/01/17 08:27:49;;;;;;;3.92;1.30;;;1.10;99.90;;;;;;5021634;28;20537;-76
2023/01/17 08:30:14;;;;;;;2.50;0.95;;;1.30;99.90;;;;;;5026037;28;20482;-75
2023/01/17 08:32:40;;;;;;;2.42;0.70;;;1.20;99.90;;;;;;5022013;28;20520;-73
2023/01/17 08:35:07;;;;;;;5.13;1.87;;;1.20;99.90;;;;;;5024149;28;20442;-73
2023/01/17 08:37:33;;;;;;;6.13;0.90;;;1.30;99.90;;;;;;5022937;28;20801;-72
2023/01/17 08:39:59;;;;;;;5.75;0.93;;;1.40;99.90;;;;;;5024931;28;20569;-73
2023/01/17 08:42:25;;;;;;;6.20;1.20;;;1.50;99.90;;;;;;5025956;28;20459;-73
2023/01/17 08:44:50;;;;;;;5.32;1.27;;;1.60;99.90;;;;;;5024152;28;20438;-75
2023/01/17 08:47:16;;;;;;;3.88;0.85;;;1.50;99.90;;;;;;5024817;28;20466;-73
2023/01/17 08:49:42;;;;;;;5.88;1.10;;;2.30;99.90;;;;;;5024726;28;20422;-73
2023/01/17 08:52:08;;;;;;;5.07;1.00;;;1.60;99.90;;;;;;5025214;28;20435;-74
2023/01/17 08:54:34;;;;;;;3.88;1.30;;;2.90;99.90;;;;;;5007053;28;20422;-73
2023/01/17 08:57:02;;;;;;;13.18;3.05;;;1.70;99.90;;;;;;5023472;28;20499;-74
2023/01/17 08:59:27;;;;;;;5.75;1.10;;;1.80;99.90;;;;;;5023621;28;20415;-74
2023/01/17 09:01:54;;;;;;;4.37;0.60;;;1.90;99.90;;;;;;5024014;28;20422;-74
2023/01/17 09:04:19;;;;;;;3.58;0.57;;;1.70;99.90;;;;;;5025699;28;20837;-74
2023/01/17 09:06:47;;;;;;;6.28;1.00;;;1.90;99.90;;;;;;5025616;28;20522;-73
2023/01/17 09:09:14;;;;;;;5.32;1.00;;;1.70;99.90;;;;;;5025007;28;20447;-73
2023/01/17 09:11:40;;;;;;;7.13;2.22;;;2.60;99.90;;;;;;5007587;28;21195;-73
2023/01/17 09:14:06;;;;;;;5.13;1.65;;;1.80;99.90;;;;;;5023073;28;20427;-72
2023/01/17 09:16:33;;;;;;;4.57;0.93;;;1.60;99.90;;;;;;5004445;28;20825;-73
2023/01/17 09:18:59;;;;;;;6.43;1.50;;;1.00;99.90;;;;;;5022951;28;20562;-72
2023/01/17 09:21:25;;;;;;;7.20;1.10;;;2.10;99.90;;;;;;5023418;28;20459;-73
2023/01/17 09:23:51;;;;;;;8.55;1.98;;;1.70;99.90;;;;;;5008069;28;20482;-74
2023/01/17 09:26:28;;;;;;;5.72;1.52;;;2.00;99.90;;;;;;5024913;28;20426;-72
2023/01/17 09:28:54;;;;;;;5.18;0.88;;;3.80;99.90;;;;;;5008619;28;20504;-72
2023/01/17 09:31:21;;;;;;;4.85;1.00;;;1.90;99.90;;;;;;5021632;28;20439;-73
2023/01/17 09:33:48;;;;;;;5.57;1.45;;;2.10;99.90;;;;;;5022676;28;20422;-72
2023/01/17 09:36:13;;;;;;;7.80;1.50;;;2.10;99.90;;;;;;5024313;28;20434;-71
2023/01/17 09:38:39;;;;;;;4.75;0.50;;;2.00;99.90;;;;;;5022753;28;20504;-72
2023/01/17 09:41:23;;;;;;;6.60;1.33;;;2.30;99.90;;;;;;5022928;28;20455;-71
2023/01/17 09:43:52;;;;;;;6.35;1.48;;;2.60;99.90;;;;;;5023635;28;20427;-72
2023/01/17 09:46:27;;;;;;;5.15;1.00;;;2.60;99.90;;;;;;5015543;28;20793;-71
2023/01/17 09:49:18;;;;;;;4.25;1.00;;;2.90;99.90;;;;;;5024807;28;20461;-73
2023/01/17 09:51:45;;;;;;;4.90;0.50;;;2.80;99.90;;;;;;5011414;28;20435;-72
2023/01/17 09:54:35;;;;;;;5.88;0.93;;;3.20;99.90;;;;;;5006455;28;20434;-72
2023/01/17 09:57:30;;;;;;;4.30;0.93;;;3.00;99.90;;;;;;5019182;28;20824;-72
2023/01/17 10:00:30;;;;;;;3.53;0.93;;;3.00;99.90;;;;;;5008662;28;20439;-73
2023/01/17 10:03:33;;;;;;;4.53;0.80;;;2.90;99.90;;;;;;5026332;28;20504;-72
2023/01/17 10:06:36;;;;;;;7.10;1.17;;;2.80;99.90;;;;;;5028298;28;20493;-72
2023/01/17 10:09:17;;;;;;;8.67;2.30;;;3.10;99.90;;;;;;5027611;28;20913;-72
2023/01/17 10:11:54;;;;;;;5.70;1.10;;;3.10;99.90;;;;;;5013060;28;20439;-72
2023/01/17 10:14:41;;;;;;;3.50;0.75;;;3.20;99.90;;;;;;5026503;28;20415;-72
2023/01/17 10:17:16;;;;;;;5.78;0.98;;;3.20;99.90;;;;;;5024772;28;20437;-72
2023/01/17 10:20:00;;;;;;;7.33;1.60;;;3.30;99.90;;;;;;5028012;28;20506;-72
2023/01/17 10:23:21;;;;;;;6.53;1.00;;;3.40;99.90;;;;;;5027211;28;20561;-73
2023/01/17 10:25:51;;;;;;;3.60;0.70;;;3.40;99.90;;;;;;4979746;28;20770;-72
2023/01/17 10:28:29;;;;;;;6.32;1.40;;;3.40;99.90;;;;;;4978313;28;20452;-73
2023/01/17 10:31:03;;;;;;;4.15;0.70;;;3.50;99.90;;;;;;5008146;28;20431;-73
2023/01/17 10:33:38;;;;;;;2.25;0.90;;;3.40;99.90;;;;;;5025945;28;20431;-73
2023/01/17 10:36:25;;;;;;;1.30;0.43;;;3.40;99.90;;;;;;5029325;28;20406;-74
2023/01/17 10:38:54;;;;;;;4.50;0.80;;;3.50;99.90;;;;;;5008197;28;20431;-73
2023/01/17 10:41:35;;;;;;;3.75;0.50;;;3.50;99.90;;;;;;5009716;28;20453;-74
2023/01/17 10:44:19;;;;;;;3.10;0.77;;;3.60;99.90;;;;;;5006748;28;20869;-74
2023/01/17 10:46:52;;;;;;;3.33;0.60;;;3.70;99.90;;;;;;5021561;28;20435;-74
2023/01/17 10:49:21;;;;;;;4.20;0.90;;;3.60;99.90;;;;;;5025739;28;20428;-73
2023/01/17 10:52:07;;;;;;;4.70;1.05;;;3.40;99.90;;;;;;5019528;28;20459;-73
2023/01/17 10:54:37;;;;;;;2.85;0.73;;;3.40;99.90;;;;;;5008756;28;20516;-73
2023/01/17 10:57:02;;;;;;;2.25;0.90;;;3.50;99.90;;;;;;5013889;28;20420;-73
2023/01/17 10:59:34;;;;;;;4.03;0.50;;;3.50;99.90;;;;;;5024356;28;20472;-74
2023/01/17 11:02:05;;;;;;;6.47;0.80;;;3.70;99.90;;;;;;5006881;28;20427;-73
2023/01/17 11:04:40;;;;;;;3.72;0.55;;;3.70;99.90;;;;;;5026635;28;20423;-75
2023/01/17 11:07:14;;;;;;;5.30;0.85;;;3.60;99.90;;;;;;5026206;28;20470;-73
2023/01/17 11:09:44;;;;;;;3.00;0.70;;;3.60;99.90;;;;;;5025141;28;20461;-74
2023/01/17 11:12:22;;;;;;;4.93;1.30;;;3.50;99.90;;;;;;5023706;28;20419;-74
2023/01/17 11:14:52;;;;;;;5.28;0.82;;;3.60;99.90;;;;;;5006180;28;20446;-73
2023/01/17 11:17:18;;;;;;;6.75;1.13;;;3.60;99.90;;;;;;5026689;28;20899;-72
2023/01/17 11:19:50;;;;;;;7.57;0.90;;;3.50;99.90;;;;;;5025972;28;20458;-73
2023/01/17 11:22:16;;;;;;;3.75;0.68;;;3.70;99.90;;;;;;5016548;28;20458;-72
2023/01/17 11:24:53;;;;;;;4.30;0.60;;;3.80;99.90;;;;;;5022967;28;20442;-73
2023/01/17 11:27:27;;;;;;;4.20;0.65;;;3.80;99.90;;;;;;5024240;28;20423;-72
2023/01/17 11:30:19;;;;;;;4.95;1.08;;;4.40;99.90;;;;;;5003970;28;20909;-73
2023/01/17 11:32:52;;;;;;;4.32;0.90;;;4.00;99.90;;;;;;5000847;28;20427;-73
2023/01/17 11:35:30;;;;;;;6.07;0.82;;;4.10;99.90;;;;;;5024333;28;20430;-73
2023/01/17 11:38:00;;;;;;;5.82;1.15;;;4.30;99.90;;;;;;5024232;28;20473;-74
2023/01/17 11:40:43;;;;;;;4.85;0.98;;;4.60;99.90;;;;;;5022455;28;20533;-74
2023/01/17 11:43:13;;;;;;;3.55;0.68;;;4.70;99.90;;;;;;5007724;28;20886;-72
2023/01/17 11:45:40;;;;;;;2.50;0.70;;;4.70;99.90;;;;;;5022215;28;20440;-73
2023/01/17 11:48:11;;;;;;;6.57;1.25;;;4.60;99.90;;;;;;5023850;28;20431;-72
2023/01/17 11:50:40;;;;;;;5.40;1.20;;;4.70;99.90;;;;;;5022446;28;20423;-72
2023/01/17 11:53:18;;;;;;;6.93;1.02;;;4.60;99.90;;;;;;5023258;28;20427;-73
2023/01/17 11:56:19;;;;;;;5.63;1.20;;;4.60;99.90;;;;;;5023689;28;20422;-73
2023/01/17 11:58:46;;;;;;;5.50;0.80;;;4.40;99.90;;;;;;5023980;28;21419;-73
2023/01/17 12:01:36;;;;;;;4.97;1.17;;;4.30;99.90;;;;;;5021867;28;20462;-72
2023/01/17 12:04:22;;;;;;;7.25;1.00;;;4.20;99.90;;;;;;5021058;28;20430;-72
2023/01/17 12:06:48;;;;;;;3.42;0.80;;;4.00;99.90;;;;;;5017350;28;20459;-74
2023/01/17 12:09:37;;;;;;;5.45;1.05;;;4.00;99.90;;;;;;4995043;28;20461;-73
2023/01/17 12:15:32;;;;;;;6.00;0.70;;;3.80;99.90;;;;;;4980618;28;20438;-73
2023/01/17 12:18:49;;;;;;;5.53;1.40;;;3.90;99.90;;;;;;4982859;28;20435;-73
2023/01/17 12:21:19;;;;;;;4.80;0.90;;;4.00;99.90;;;;;;4980061;28;20526;-72
2023/01/17 12:24:04;;;;;;;3.92;0.68;;;4.00;99.90;;;;;;4987158;28;20421;-72
2023/01/17 12:26:40;;;;;;;4.97;0.68;;;4.20;99.90;;;;;;4982815;28;20944;-73
2023/01/17 12:29:35;;;;;;;3.92;0.93;;;4.40;99.90;;;;;;4984562;28;20418;-72
2023/01/17 12:32:31;;;;;;;3.35;1.13;;;4.50;99.90;;;;;;4966208;28;20784;-74
2023/01/17 12:35:12;;;;;;;6.93;1.63;;;4.50;99.90;;;;;;4992466;28;20454;-74
2023/01/17 12:37:42;;;;;;;4.60;0.68;;;4.60;99.90;;;;;;4986206;28;20560;-74
2023/01/17 12:40:23;;;;;;;2.70;0.40;;;4.90;99.90;;;;;;4986669;28;20419;-74
2023/01/17 12:43:00;;;;;;;5.63;1.00;;;6.00;99.90;;;;;;4985843;28;20433;-74
2023/01/17 12:45:32;;;;;;;3.75;0.70;;;4.80;99.90;;;;;;4983006;28;21008;-74
2023/01/17 12:48:11;;;;;;;5.43;1.30;;;4.60;99.90;;;;;;4985981;28;21635;-74
2023/01/17 12:50:59;;;;;;;4.47;0.65;;;4.60;99.90;;;;;;4981991;28;20513;-74
2023/01/17 12:53:54;;;;;;;4.93;0.52;;;4.70;99.90;;;;;;4967893;28;20466;-72
2023/01/17 12:56:38;;;;;;;2.63;0.57;;;4.70;99.90;;;;;;4973170;28;20484;-73
2023/01/17 12:59:24;;;;;;;4.88;0.60;;;5.40;99.90;;;;;;4985425;28;20426;-73
2023/01/17 13:01:58;;;;;;;2.15;0.40;;;5.10;99.90;;;;;;4983547;28;20442;-73
2023/01/17 13:04:36;;;;;;;5.80;0.73;;;5.20;99.90;;;;;;4986542;28;20426;-72
2023/01/17 13:07:17;;;;;;;3.45;0.60;;;4.70;99.90;;;;;;4986806;28;20440;-73
2023/01/17 13:09:56;;;;;;;2.65;0.70;;;4.70;99.90;;;;;;5000813;28;20423;-75
2023/01/17 13:12:25;;;;;;;2.60;0.45;;;4.70;99.90;;;;;;5008619;28;20538;-75
2023/01/17 13:14:51;;;;;;;4.63;0.90;;;4.80;99.90;;;;;;5025351;28;20466;-74
2023/01/17 13:17:43;;;;;;;6.63;1.40;;;5.30;99.90;;;;;;5025015;28;20434;-74
2023/01/17 13:20:32;;;;;;;4.10;0.60;;;4.60;99.90;;;;;;5024614;28;20430;-73
2023/01/17 13:23:08;;;;;;;1.80;0.47;;;4.60;99.90;;;;;;5025828;28;20414;-74
2023/01/17 13:25:44;;;;;;;3.70;0.77;;;4.60;99.90;;;;;;5023127;28;20522;-74
2023/01/17 13:28:48;;;;;;;4.13;0.90;;;4.60;99.90;;;;;;5005530;28;20479;-73
2023/01/17 13:31:19;;;;;;;2.17;0.40;;;4.60;99.90;;;;;;5008030;28;20944;-74
2023/01/17 13:34:12;;;;;;;3.00;0.90;;;4.60;99.90;;;;;;5028077;28;20435;-74
2023/01/17 13:37:12;;;;;;;2.40;0.50;;;4.60;99.90;;;;;;5027620;28;20426;-74
2023/01/17 13:40:22;;;;;;;1.50;0.60;;;4.60;99.90;;;;;;5028751;28;20450;-74
2023/01/17 13:43:10;;;;;;;3.10;0.50;;;4.60;99.90;;;;;;5027842;28;20491;-73
2023/01/17 13:45:37;;;;;;;4.25;0.75;;;4.60;99.90;;;;;;5039273;28;20430;-74
2023/01/17 13:48:13;;;;;;;3.40;0.60;;;4.60;99.90;;;;;;5028632;28;20801;-74
2023/01/17 13:50:42;;;;;;;6.20;1.25;;;4.70;99.90;;;;;;5029437;28;20419;-74
2023/01/17 13:53:32;;;;;;;0.90;0.30;;;4.50;99.90;;;;;;5027581;28;20825;-74
2023/01/17 13:56:12;;;;;;;3.03;0.40;;;4.50;99.90;;;;;;5034296;28;20422;-73
2023/01/17 13:58:48;;;;;;;3.20;0.40;;;4.50;99.90;;;;;;5028377;28;20427;-73
2023/01/17 14:01:38;;;;;;;4.82;0.98;;;4.40;99.90;;;;;;5037511;28;20818;-73
2023/01/17 14:04:03;;;;;;;4.97;0.60;;;4.40;99.90;;;;;;5018832;28;20415;-73
2023/01/17 14:06:39;;;;;;;4.43;0.37;;;4.40;99.90;;;;;;5028000;28;20440;-73
2023/01/17 14:09:11;;;;;;;1.88;0.60;;;4.40;99.90;;;;;;5008936;28;20804;-74
2023/01/17 14:11:52;;;;;;;3.40;0.40;;;4.40;99.90;;;;;;5009380;28;20944;-73
2023/01/17 14:14:39;;;;;;;2.85;0.45;;;4.40;99.90;;;;;;5010098;28;20430;-73
2023/01/17 14:17:26;;;;;;;3.95;0.80;;;4.30;99.90;;;;;;5027180;28;20569;-73
2023/01/17 14:19:56;;;;;;;3.42;0.57;;;4.20;99.90;;;;;;5025565;28;20495;-73
2023/01/17 14:22:25;;;;;;;3.15;0.43;;;4.70;99.90;;;;;;5011427;28;21230;-72
2023/01/17 14:25:18;;;;;;;3.70;0.90;;;4.00;99.90;;;;;;5011052;28;20463;-73
2023/01/17 14:27:57;;;;;;;3.22;0.60;;;4.10;99.90;;;;;;5009502;28;20431;-73
2023/01/17 14:30:30;;;;;;;1.83;0.50;;;4.10;99.90;;;;;;5010150;28;20492;-73
2023/01/17 14:33:04;;;;;;;3.28;1.10;;;4.10;99.90;;;;;;5027144;28;20431;-74
2023/01/17 14:35:37;;;;;;;4.00;1.00;;;4.10;99.90;;;;;;5028179;28;20404;-73
2023/01/17 14:38:14;;;;;;;2.30;0.80;;;4.10;99.90;;;;;;5028827;28;20415;-73
2023/01/17 14:41:07;;;;;;;4.68;0.80;;;5.00;99.90;;;;;;5025761;28;20415;-73
2023/01/17 14:43:39;;;;;;;2.63;0.40;;;4.00;99.90;;;;;;5026161;28;20480;-73
2023/01/17 14:46:14;;;;;;;3.53;0.60;;;3.90;99.90;;;;;;5011816;28;20479;-73
2023/01/17 14:48:40;;;;;;;6.80;1.15;;;3.90;99.90;;;;;;5009822;28;20849;-73